sensor_id;sensor_type;location;lat;lon;timestamp;temperature;humidity
25046;DHT22;13044;49.304;12.840;2023-07-24T00:00:31;19.40;90.40
25046;DHT22;13044;49.304;12.840;2023-07-24T00:03:01;19.40;90.60
25046;DHT22;13044;49.304;12.840;2023-07-24T00:05:29;19.30;90.50
25046;DHT22;13044;49.304;12.840;2023-07-24T00:07:56;19.30;90.60
25046;DHT22;13044;49.304;12.840;2023-07-24T00:10:22;19.30;90.60
25046;DHT22;13044;49.304;12.840;2023-07-24T00:12:49;19.30;90.90
25046;DHT22;13044;49.304;12.840;2023-07-24T00:15:16;19.40;90.80
25046;DHT22;13044;49.304;12.840;2023-07-24T00:17:44;19.40;91.00
25046;DHT22;13044;49.304;12.840;2023-07-24T00:20:11;19.50;91.00
25046;DHT22;13044;49.304;12.840;2023-07-24T00:22:38;19.50;90.80
25046;DHT22;13044;49.304;12.840;2023-07-24T00:25:06;19.50;90.50
25046;DHT22;13044;49.304;12.840;2023-07-24T00:27:33;19.50;90.70
25046;DHT22;13044;49.304;12.840;2023-07-24T00:29:59;19.60;90.80
25046;DHT22;13044;49.304;12.840;2023-07-24T00:32:26;19.60;90.60
25046;DHT22;13044;49.304;12.840;2023-07-24T00:34:53;19.60;90.50
25046;DHT22;13044;49.304;12.840;2023-07-24T00:37:20;19.60;90.50
25046;DHT22;13044;49.304;12.840;2023-07-24T00:39:47;19.70;90.50
25046;DHT22;13044;49.304;12.840;2023-07-24T00:42:14;19.80;90.60
25046;DHT22;13044;49.304;12.840;2023-07-24T00:44:41;19.80;90.70
25046;DHT22;13044;49.304;12.840;2023-07-24T00:47:08;19.80;90.90
25046;DHT22;13044;49.304;12.840;2023-07-24T00:49:35;19.80;91.30
25046;DHT22;13044;49.304;12.840;2023-07-24T00:52:02;19.80;91.50
25046;DHT22;13044;49.304;12.840;2023-07-24T00:54:31;19.80;91.50
25046;DHT22;13044;49.304;12.840;2023-07-24T00:56:59;19.80;91.70
25046;DHT22;13044;49.304;12.840;2023-07-24T00:59:27;19.80;91.80
25046;DHT22;13044;49.304;12.840;2023-07-24T01:01:54;19.80;92.10
25046;DHT22;13044;49.304;12.840;2023-07-24T01:04:22;19.70;92.50
25046;DHT22;13044;49.304;12.840;2023-07-24T01:06:49;19.70;92.50
25046;DHT22;13044;49.304;12.840;2023-07-24T01:09:16;19.70;92.60
25046;DHT22;13044;49.304;12.840;2023-07-24T01:12:28;19.70;92.50
25046;DHT22;13044;49.304;12.840;2023-07-24T01:17:48;19.60;93.30
25046;DHT22;13044;49.304;12.840;2023-07-24T01:20:17;19.60;93.70
25046;DHT22;13044;49.304;12.840;2023-07-24T01:23:07;19.60;93.80
25046;DHT22;13044;49.304;12.840;2023-07-24T01:25:59;19.70;93.80
25046;DHT22;13044;49.304;12.840;2023-07-24T01:28:28;19.70;94.00
25046;DHT22;13044;49.304;12.840;2023-07-24T01:30:56;19.70;94.00
25046;DHT22;13044;49.304;12.840;2023-07-24T01:33:24;19.70;94.30
25046;DHT22;13044;49.304;12.840;2023-07-24T01:35:59;19.80;94.50
25046;DHT22;13044;49.304;12.840;2023-07-24T01:38:27;19.80;94.40
25046;DHT22;13044;49.304;12.840;2023-07-24T01:40:55;19.80;94.20
25046;DHT22;13044;49.304;12.840;2023-07-24T01:43:24;19.80;94.10
25046;DHT22;13044;49.304;12.840;2023-07-24T01:45:53;19.80;94.30
25046;DHT22;13044;49.304;12.840;2023-07-24T01:48:20;19.80;95.10
25046;DHT22;13044;49.304;12.840;2023-07-24T01:50:47;19.80;95.80
25046;DHT22;13044;49.304;12.840;2023-07-24T01:53:14;19.70;96.50
25046;DHT22;13044;49.304;12.840;2023-07-24T01:55:41;19.70;96.60
25046;DHT22;13044;49.304;12.840;2023-07-24T01:58:08;19.70;96.90
25046;DHT22;13044;49.304;12.840;2023-07-24T02:00:35;19.70;97.40
25046;DHT22;13044;49.304;12.840;2023-07-24T02:03:02;19.70;98.20
25046;DHT22;13044;49.304;12.840;2023-07-24T02:05:29;19.70;99.50
25046;DHT22;13044;49.304;12.840;2023-07-24T02:07:56;19.70;99.60
25046;DHT22;13044;49.304;12.840;2023-07-24T02:10:23;19.70;99.70
25046;DHT22;13044;49.304;12.840;2023-07-24T02:12:50;19.70;99.80
25046;DHT22;13044;49.304;12.840;2023-07-24T02:15:16;19.70;99.90
25046;DHT22;13044;49.304;12.840;2023-07-24T02:17:43;19.70;99.70
25046;DHT22;13044;49.304;12.840;2023-07-24T02:20:10;19.60;99.90
25046;DHT22;13044;49.304;12.840;2023-07-24T02:22:37;19.60;99.90
25046;DHT22;13044;49.304;12.840;2023-07-24T02:25:05;19.60;99.90
25046;DHT22;13044;49.304;12.840;2023-07-24T02:27:32;19.70;99.90
25046;DHT22;13044;49.304;12.840;2023-07-24T02:30:02;19.70;99.90
25046;DHT22;13044;49.304;12.840;2023-07-24T02:32:29;19.60;99.90
25046;DHT22;13044;49.304;12.840;2023-07-24T02:34:56;19.60;99.90
25046;DHT22;13044;49.304;12.840;2023-07-24T02:37:23;19.60;99.90
25046;DHT22;13044;49.304;12.840;2023-07-24T02:39:51;19.60;99.90
25046;DHT22;13044;49.304;12.840;2023-07-24T02:42:19;19.60;99.90
25046;DHT22;13044;49.304;12.840;2023-07-24T02:44:46;19.60;99.90
25046;DHT22;13044;49.304;12.840;2023-07-24T02:47:13;19.60;99.90
25046;DHT22;13044;49.304;12.840;2023-07-24T02:49:40;19.50;99.90
25046;DHT22;13044;49.304;12.840;2023-07-24T02:52:07;19.50;99.90
25046;DHT22;13044;49.304;12.840;2023-07-24T02:54:34;19.50;99.90
25046;DHT22;13044;49.304;12.840;2023-07-24T02:57:01;19.60;99.90
25046;DHT22;13044;49.304;12.840;2023-07-24T02:59:29;19.60;99.90
25046;DHT22;13044;49.304;12.840;2023-07-24T03:01:58;19.60;99.90
25046;DHT22;13044;49.304;12.840;2023-07-24T03:04:25;19.60;99.90
25046;DHT22;13044;49.304;12.840;2023-07-24T03:06:52;19.60;99.90
25046;DHT22;13044;49.304;12.840;2023-07-24T03:09:19;19.50;99.90
25046;DHT22;13044;49.304;12.840;2023-07-24T03:11:46;19.40;99.90
25046;DHT22;13044;49.304;12.840;2023-07-24T03:14:12;19.40;99.90
25046;DHT22;13044;49.304;12.840;2023-07-24T03:16:39;19.40;99.90
25046;DHT22;13044;49.304;12.840;2023-07-24T03:19:06;19.40;99.90
25046;DHT22;13044;49.304;12.840;2023-07-24T03:21:33;19.40;99.90
25046;DHT22;13044;49.304;12.840;2023-07-24T03:24:00;19.40;99.90
25046;DHT22;13044;49.304;12.840;2023-07-24T03:26:27;19.40;99.90
25046;DHT22;13044;49.304;12.840;2023-07-24T03:28:55;19.30;99.90
25046;DHT22;13044;49.304;12.840;2023-07-24T03:31:21;19.30;99.90
25046;DHT22;13044;49.304;12.840;2023-07-24T03:33:48;19.30;99.90
25046;DHT22;13044;49.304;12.840;2023-07-24T03:36:15;19.30;99.90
25046;DHT22;13044;49.304;12.840;2023-07-24T03:38:42;19.30;99.90
25046;DHT22;13044;49.304;12.840;2023-07-24T03:41:09;19.30;99.90
25046;DHT22;13044;49.304;12.840;2023-07-24T03:43:36;19.30;99.90
25046;DHT22;13044;49.304;12.840;2023-07-24T03:46:03;19.30;99.90
25046;DHT22;13044;49.304;12.840;2023-07-24T03:48:30;19.30;99.90
25046;DHT22;13044;49.304;12.840;2023-07-24T03:51:00;19.30;99.90
25046;DHT22;13044;49.304;12.840;2023-07-24T03:53:27;19.20;99.90
25046;DHT22;13044;49.304;12.840;2023-07-24T03:55:54;19.20;99.90
25046;DHT22;13044;49.304;12.840;2023-07-24T03:58:21;19.10;99.90
25046;DHT22;13044;49.304;12.840;2023-07-24T04:00:48;19.10;99.90
25046;DHT22;13044;49.304;12.840;2023-07-24T04:03:16;19.10;99.90
25046;DHT22;13044;49.304;12.840;2023-07-24T04:05:43;19.20;99.90
25046;DHT22;13044;49.304;12.840;2023-07-24T04:08:10;19.20;99.90
25046;DHT22;13044;49.304;12.840;2023-07-24T04:10:37;19.20;99.90
25046;DHT22;13044;49.304;12.840;2023-07-24T04:13:03;19.20;99.90
25046;DHT22;13044;49.304;12.840;2023-07-24T04:15:30;19.20;99.90
25046;DHT22;13044;49.304;12.840;2023-07-24T04:17:57;19.30;99.90
25046;DHT22;13044;49.304;12.840;2023-07-24T04:20:24;19.20;99.90
25046;DHT22;13044;49.304;12.840;2023-07-24T04:22:51;19.20;99.90
25046;DHT22;13044;49.304;12.840;2023-07-24T04:25:18;19.30;99.90
25046;DHT22;13044;49.304;12.840;2023-07-24T04:27:45;19.30;99.90
25046;DHT22;13044;49.304;12.840;2023-07-24T04:30:11;19.30;99.90
25046;DHT22;13044;49.304;12.840;2023-07-24T04:32:38;19.30;99.90
25046;DHT22;13044;49.304;12.840;2023-07-24T04:35:06;19.30;99.90
25046;DHT22;13044;49.304;12.840;2023-07-24T04:37:33;19.30;99.90
25046;DHT22;13044;49.304;12.840;2023-07-24T04:40:00;19.30;99.90
25046;DHT22;13044;49.304;12.840;2023-07-24T04:42:27;19.30;99.90
25046;DHT22;13044;49.304;12.840;2023-07-24T04:44:54;19.30;99.90
25046;DHT22;13044;49.304;12.840;2023-07-24T04:47:20;19.30;99.90
25046;DHT22;13044;49.304;12.840;2023-07-24T04:49:47;19.30;99.90
25046;DHT22;13044;49.304;12.840;2023-07-24T04:52:14;19.30;99.90
25046;DHT22;13044;49.304;12.840;2023-07-24T04:54:41;19.20;99.90
25046;DHT22;13044;49.304;12.840;2023-07-24T04:57:08;19.20;99.90
25046;DHT22;13044;49.304;12.840;2023-07-24T04:59:35;19.20;99.90
25046;DHT22;13044;49.304;12.840;2023-07-24T05:02:02;19.20;99.90
25046;DHT22;13044;49.304;12.840;2023-07-24T05:04:29;19.20;99.90
25046;DHT22;13044;49.304;12.840;2023-07-24T05:06:56;19.20;99.90
25046;DHT22;13044;49.304;12.840;2023-07-24T05:09:23;19.20;99.90
25046;DHT22;13044;49.304;12.840;2023-07-24T05:11:49;19.20;99.90
25046;DHT22;13044;49.304;12.840;2023-07-24T05:14:16;19.30;99.90
25046;DHT22;13044;49.304;12.840;2023-07-24T05:16:43;19.30;99.90
25046;DHT22;13044;49.304;12.840;2023-07-24T05:19:10;19.40;99.90
25046;DHT22;13044;49.304;12.840;2023-07-24T05:21:37;19.40;99.90
25046;DHT22;13044;49.304;12.840;2023-07-24T05:24:04;19.40;99.90
25046;DHT22;13044;49.304;12.840;2023-07-24T05:26:31;19.50;99.90
25046;DHT22;13044;49.304;12.840;2023-07-24T05:28:58;19.50;99.90
25046;DHT22;13044;49.304;12.840;2023-07-24T05:31:25;19.60;99.90
25046;DHT22;13044;49.304;12.840;2023-07-24T05:33:52;19.60;99.90
25046;DHT22;13044;49.304;12.840;2023-07-24T05:36:19;19.60;99.90
25046;DHT22;13044;49.304;12.840;2023-07-24T05:38:46;19.70;99.90
25046;DHT22;13044;49.304;12.840;2023-07-24T05:41:13;19.80;99.90
25046;DHT22;13044;49.304;12.840;2023-07-24T05:43:39;19.80;99.90
25046;DHT22;13044;49.304;12.840;2023-07-24T05:46:06;19.90;99.90
25046;DHT22;13044;49.304;12.840;2023-07-24T05:48:33;19.90;99.90
25046;DHT22;13044;49.304;12.840;2023-07-24T05:51:00;19.90;99.90
25046;DHT22;13044;49.304;12.840;2023-07-24T05:53:27;20.00;99.90
25046;DHT22;13044;49.304;12.840;2023-07-24T05:55:58;19.90;99.90
25046;DHT22;13044;49.304;12.840;2023-07-24T05:58:27;19.90;99.90
25046;DHT22;13044;49.304;12.840;2023-07-24T06:00:54;19.90;99.90
25046;DHT22;13044;49.304;12.840;2023-07-24T06:03:24;19.90;99.90
25046;DHT22;13044;49.304;12.840;2023-07-24T06:05:55;19.90;99.90
25046;DHT22;13044;49.304;12.840;2023-07-24T06:08:22;19.90;99.90
25046;DHT22;13044;49.304;12.840;2023-07-24T06:10:50;20.00;99.90
25046;DHT22;13044;49.304;12.840;2023-07-24T06:13:18;20.00;99.90
25046;DHT22;13044;49.304;12.840;2023-07-24T06:15:47;20.10;99.90
25046;DHT22;13044;49.304;12.840;2023-07-24T06:18:15;20.10;99.90
25046;DHT22;13044;49.304;12.840;2023-07-24T06:20:42;20.20;99.90
25046;DHT22;13044;49.304;12.840;2023-07-24T06:23:09;20.20;99.90
25046;DHT22;13044;49.304;12.840;2023-07-24T06:25:36;20.30;99.90
25046;DHT22;13044;49.304;12.840;2023-07-24T06:28:03;20.30;99.90
25046;DHT22;13044;49.304;12.840;2023-07-24T06:30:30;20.40;99.90
25046;DHT22;13044;49.304;12.840;2023-07-24T06:32:57;20.50;99.90
25046;DHT22;13044;49.304;12.840;2023-07-24T06:35:24;20.50;99.90
25046;DHT22;13044;49.304;12.840;2023-07-24T06:37:51;20.70;99.90
25046;DHT22;13044;49.304;12.840;2023-07-24T06:40:18;20.80;99.90
25046;DHT22;13044;49.304;12.840;2023-07-24T06:42:45;20.80;99.90
25046;DHT22;13044;49.304;12.840;2023-07-24T06:45:12;21.00;99.90
25046;DHT22;13044;49.304;12.840;2023-07-24T06:47:39;21.10;99.90
25046;DHT22;13044;49.304;12.840;2023-07-24T06:50:07;21.20;99.90
25046;DHT22;13044;49.304;12.840;2023-07-24T06:52:34;21.30;99.90
25046;DHT22;13044;49.304;12.840;2023-07-24T06:55:01;21.40;99.90
25046;DHT22;13044;49.304;12.840;2023-07-24T06:57:28;21.40;99.90
25046;DHT22;13044;49.304;12.840;2023-07-24T06:59:58;21.60;99.90
25046;DHT22;13044;49.304;12.840;2023-07-24T07:10:32;22.10;99.90
25046;DHT22;13044;49.304;12.840;2023-07-24T07:12:59;22.20;99.90
25046;DHT22;13044;49.304;12.840;2023-07-24T07:15:26;22.40;99.90
25046;DHT22;13044;49.304;12.840;2023-07-24T07:17:53;22.50;99.90
25046;DHT22;13044;49.304;12.840;2023-07-24T07:20:20;22.60;99.90
25046;DHT22;13044;49.304;12.840;2023-07-24T07:22:47;22.80;99.70
25046;DHT22;13044;49.304;12.840;2023-07-24T07:25:14;22.90;99.60
25046;DHT22;13044;49.304;12.840;2023-07-24T07:27:41;23.10;99.40
25046;DHT22;13044;49.304;12.840;2023-07-24T07:30:08;23.20;98.70
25046;DHT22;13044;49.304;12.840;2023-07-24T07:32:35;23.30;97.70
25046;DHT22;13044;49.304;12.840;2023-07-24T07:35:03;23.40;97.70
25046;DHT22;13044;49.304;12.840;2023-07-24T07:37:30;23.50;96.90
25046;DHT22;13044;49.304;12.840;2023-07-24T07:39:57;23.50;96.80
25046;DHT22;13044;49.304;12.840;2023-07-24T07:42:24;23.70;96.80
25046;DHT22;13044;49.304;12.840;2023-07-24T07:44:51;23.80;96.40
25046;DHT22;13044;49.304;12.840;2023-07-24T07:47:18;24.00;96.20
25046;DHT22;13044;49.304;12.840;2023-07-24T07:49:45;24.20;95.70
25046;DHT22;13044;49.304;12.840;2023-07-24T07:52:12;24.30;94.80
25046;DHT22;13044;49.304;12.840;2023-07-24T07:54:41;24.50;94.00
25046;DHT22;13044;49.304;12.840;2023-07-24T07:57:11;24.50;93.60
25046;DHT22;13044;49.304;12.840;2023-07-24T07:59:38;24.60;93.40
25046;DHT22;13044;49.304;12.840;2023-07-24T08:02:06;24.70;93.20
25046;DHT22;13044;49.304;12.840;2023-07-24T08:04:33;24.90;93.50
25046;DHT22;13044;49.304;12.840;2023-07-24T08:07:00;25.00;93.40
25046;DHT22;13044;49.304;12.840;2023-07-24T08:09:27;25.20;93.30
25046;DHT22;13044;49.304;12.840;2023-07-24T08:11:54;25.40;92.70
25046;DHT22;13044;49.304;12.840;2023-07-24T08:14:21;25.40;91.80
25046;DHT22;13044;49.304;12.840;2023-07-24T08:16:48;25.40;92.00
25046;DHT22;13044;49.304;12.840;2023-07-24T08:19:16;25.40;92.00
25046;DHT22;13044;49.304;12.840;2023-07-24T08:21:43;25.50;91.90
25046;DHT22;13044;49.304;12.840;2023-07-24T08:24:10;25.50;92.00
25046;DHT22;13044;49.304;12.840;2023-07-24T08:26:37;25.50;91.70
25046;DHT22;13044;49.304;12.840;2023-07-24T08:29:05;25.40;91.20
25046;DHT22;13044;49.304;12.840;2023-07-24T08:31:32;25.40;91.10
25046;DHT22;13044;49.304;12.840;2023-07-24T08:33:59;25.30;91.00
25046;DHT22;13044;49.304;12.840;2023-07-24T08:36:26;25.20;91.10
25046;DHT22;13044;49.304;12.840;2023-07-24T08:38:54;25.20;90.90
25046;DHT22;13044;49.304;12.840;2023-07-24T08:41:21;25.10;90.90
25046;DHT22;13044;49.304;12.840;2023-07-24T08:43:48;25.00;90.20
25046;DHT22;13044;49.304;12.840;2023-07-24T08:46:16;25.00;89.40
25046;DHT22;13044;49.304;12.840;2023-07-24T08:48:44;24.90;88.40
25046;DHT22;13044;49.304;12.840;2023-07-24T08:51:13;24.80;87.70
25046;DHT22;13044;49.304;12.840;2023-07-24T08:53:43;24.70;88.10
25046;DHT22;13044;49.304;12.840;2023-07-24T08:56:12;24.60;88.80
25046;DHT22;13044;49.304;12.840;2023-07-24T08:58:39;24.50;89.50
25046;DHT22;13044;49.304;12.840;2023-07-24T09:01:07;24.30;90.20
25046;DHT22;13044;49.304;12.840;2023-07-24T09:03:35;24.20;90.40
25046;DHT22;13044;49.304;12.840;2023-07-24T09:06:04;24.20;90.70
25046;DHT22;13044;49.304;12.840;2023-07-24T09:08:36;24.10;91.20
25046;DHT22;13044;49.304;12.840;2023-07-24T09:11:06;23.90;91.90
25046;DHT22;13044;49.304;12.840;2023-07-24T09:13:35;23.90;92.30
25046;DHT22;13044;49.304;12.840;2023-07-24T09:16:02;23.90;92.60
25046;DHT22;13044;49.304;12.840;2023-07-24T09:18:43;23.80;93.10
25046;DHT22;13044;49.304;12.840;2023-07-24T09:21:10;23.70;93.60
25046;DHT22;13044;49.304;12.840;2023-07-24T09:23:40;23.60;93.70
25046;DHT22;13044;49.304;12.840;2023-07-24T09:26:08;23.60;94.50
25046;DHT22;13044;49.304;12.840;2023-07-24T09:28:35;23.60;94.80
25046;DHT22;13044;49.304;12.840;2023-07-24T09:31:03;23.50;95.30
25046;DHT22;13044;49.304;12.840;2023-07-24T09:33:37;23.40;95.80
25046;DHT22;13044;49.304;12.840;2023-07-24T09:36:06;23.40;96.30
25046;DHT22;13044;49.304;12.840;2023-07-24T09:38:39;23.40;96.70
25046;DHT22;13044;49.304;12.840;2023-07-24T09:41:07;23.30;97.10
25046;DHT22;13044;49.304;12.840;2023-07-24T09:43:34;23.20;97.70
25046;DHT22;13044;49.304;12.840;2023-07-24T09:46:07;23.10;98.80
25046;DHT22;13044;49.304;12.840;2023-07-24T09:48:36;23.00;99.50
25046;DHT22;13044;49.304;12.840;2023-07-24T09:51:24;23.00;99.90
25046;DHT22;13044;49.304;12.840;2023-07-24T09:54:12;22.90;99.90
25046;DHT22;13044;49.304;12.840;2023-07-24T09:56:43;23.00;99.90
25046;DHT22;13044;49.304;12.840;2023-07-24T09:59:23;22.90;99.90
25046;DHT22;13044;49.304;12.840;2023-07-24T10:01:53;23.00;99.90
25046;DHT22;13044;49.304;12.840;2023-07-24T10:04:20;23.00;99.90
25046;DHT22;13044;49.304;12.840;2023-07-24T10:06:51;23.00;99.90
25046;DHT22;13044;49.304;12.840;2023-07-24T10:09:18;23.00;99.90
25046;DHT22;13044;49.304;12.840;2023-07-24T10:11:48;22.90;99.90
25046;DHT22;13044;49.304;12.840;2023-07-24T10:14:15;22.90;99.90
25046;DHT22;13044;49.304;12.840;2023-07-24T10:16:44;22.90;99.90
25046;DHT22;13044;49.304;12.840;2023-07-24T10:19:15;22.80;99.90
25046;DHT22;13044;49.304;12.840;2023-07-24T10:21:47;22.80;99.90
25046;DHT22;13044;49.304;12.840;2023-07-24T10:24:17;22.80;99.90
25046;DHT22;13044;49.304;12.840;2023-07-24T10:27:04;22.80;99.90
25046;DHT22;13044;49.304;12.840;2023-07-24T10:29:34;22.80;99.90
25046;DHT22;13044;49.304;12.840;2023-07-24T10:32:03;22.90;99.90
25046;DHT22;13044;49.304;12.840;2023-07-24T10:34:38;22.90;99.90
25046;DHT22;13044;49.304;12.840;2023-07-24T10:37:08;23.00;99.90
25046;DHT22;13044;49.304;12.840;2023-07-24T10:39:40;23.00;99.90
25046;DHT22;13044;49.304;12.840;2023-07-24T10:42:08;23.00;99.90
25046;DHT22;13044;49.304;12.840;2023-07-24T10:44:37;23.10;99.90
25046;DHT22;13044;49.304;12.840;2023-07-24T10:47:04;23.30;99.90
25046;DHT22;13044;49.304;12.840;2023-07-24T10:49:31;23.60;99.90
25046;DHT22;13044;49.304;12.840;2023-07-24T10:51:59;23.70;99.90
25046;DHT22;13044;49.304;12.840;2023-07-24T10:54:26;23.80;99.90
25046;DHT22;13044;49.304;12.840;2023-07-24T10:56:59;24.00;99.90
25046;DHT22;13044;49.304;12.840;2023-07-24T10:59:39;24.20;99.50
25046;DHT22;13044;49.304;12.840;2023-07-24T11:02:07;24.30;98.70
25046;DHT22;13044;49.304;12.840;2023-07-24T11:04:34;24.50;98.60
25046;DHT22;13044;49.304;12.840;2023-07-24T11:07:01;24.70;98.50
25046;DHT22;13044;49.304;12.840;2023-07-24T11:09:39;25.00;98.00
25046;DHT22;13044;49.304;12.840;2023-07-24T11:14:48;25.40;97.20
25046;DHT22;13044;49.304;12.840;2023-07-24T11:17:22;25.50;96.30
25046;DHT22;13044;49.304;12.840;2023-07-24T11:20:09;25.60;95.50
25046;DHT22;13044;49.304;12.840;2023-07-24T11:22:39;25.70;95.60
25046;DHT22;13044;49.304;12.840;2023-07-24T11:25:07;25.80;94.90
25046;DHT22;13044;49.304;12.840;2023-07-24T11:27:40;26.00;94.40
25046;DHT22;13044;49.304;12.840;2023-07-24T11:30:09;26.20;94.00
25046;DHT22;13044;49.304;12.840;2023-07-24T11:32:40;26.30;93.00
25046;DHT22;13044;49.304;12.840;2023-07-24T11:35:08;26.30;92.00
25046;DHT22;13044;49.304;12.840;2023-07-24T11:37:36;26.30;91.50
25046;DHT22;13044;49.304;12.840;2023-07-24T11:40:04;26.30;91.50
25046;DHT22;13044;49.304;12.840;2023-07-24T11:42:38;26.30;91.70
25046;DHT22;13044;49.304;12.840;2023-07-24T11:45:07;26.30;91.50
25046;DHT22;13044;49.304;12.840;2023-07-24T11:47:47;26.40;91.30
25046;DHT22;13044;49.304;12.840;2023-07-24T11:50:16;26.40;91.10
25046;DHT22;13044;49.304;12.840;2023-07-24T11:52:46;26.50;90.90
25046;DHT22;13044;49.304;12.840;2023-07-24T11:55:20;26.60;90.60
25046;DHT22;13044;49.304;12.840;2023-07-24T11:57:57;26.70;90.30
25046;DHT22;13044;49.304;12.840;2023-07-24T12:00:26;26.90;90.40
25046;DHT22;13044;49.304;12.840;2023-07-24T12:02:59;26.90;89.50
25046;DHT22;13044;49.304;12.840;2023-07-24T12:05:27;26.90;88.50
25046;DHT22;13044;49.304;12.840;2023-07-24T12:07:54;26.90;88.40
25046;DHT22;13044;49.304;12.840;2023-07-24T12:10:26;27.00;88.60
25046;DHT22;13044;49.304;12.840;2023-07-24T12:12:57;26.90;88.10
25046;DHT22;13044;49.304;12.840;2023-07-24T12:15:26;26.80;87.10
25046;DHT22;13044;49.304;12.840;2023-07-24T12:17:55;26.70;87.40
25046;DHT22;13044;49.304;12.840;2023-07-24T12:20:23;26.70;87.10
25046;DHT22;13044;49.304;12.840;2023-07-24T12:22:50;26.60;86.90
25046;DHT22;13044;49.304;12.840;2023-07-24T12:25:17;26.50;86.90
25046;DHT22;13044;49.304;12.840;2023-07-24T12:27:47;26.40;87.40
25046;DHT22;13044;49.304;12.840;2023-07-24T12:30:14;26.30;87.40
25046;DHT22;13044;49.304;12.840;2023-07-24T12:32:41;26.30;87.60
25046;DHT22;13044;49.304;12.840;2023-07-24T12:35:09;26.30;87.20
25046;DHT22;13044;49.304;12.840;2023-07-24T12:37:36;26.30;87.40
25046;DHT22;13044;49.304;12.840;2023-07-24T12:40:06;26.30;88.30
25046;DHT22;13044;49.304;12.840;2023-07-24T12:42:34;26.30;86.30
25046;DHT22;13044;49.304;12.840;2023-07-24T12:45:01;26.30;86.80
25046;DHT22;13044;49.304;12.840;2023-07-24T12:47:32;26.30;86.50
25046;DHT22;13044;49.304;12.840;2023-07-24T12:50:00;26.20;86.10
25046;DHT22;13044;49.304;12.840;2023-07-24T12:52:29;26.20;86.30
25046;DHT22;13044;49.304;12.840;2023-07-24T12:54:56;26.20;86.70
25046;DHT22;13044;49.304;12.840;2023-07-24T12:57:28;26.20;87.10
25046;DHT22;13044;49.304;12.840;2023-07-24T12:59:55;26.20;87.20
25046;DHT22;13044;49.304;12.840;2023-07-24T13:02:22;26.20;87.10
25046;DHT22;13044;49.304;12.840;2023-07-24T13:04:48;26.20;87.40
25046;DHT22;13044;49.304;12.840;2023-07-24T13:07:16;26.30;88.00
25046;DHT22;13044;49.304;12.840;2023-07-24T13:09:44;26.20;86.80
25046;DHT22;13044;49.304;12.840;2023-07-24T13:12:11;26.00;85.10
25046;DHT22;13044;49.304;12.840;2023-07-24T13:14:38;25.90;86.40
25046;DHT22;13044;49.304;12.840;2023-07-24T13:17:11;25.80;85.80
25046;DHT22;13044;49.304;12.840;2023-07-24T13:19:38;25.60;86.90
25046;DHT22;13044;49.304;12.840;2023-07-24T13:22:05;25.50;88.80
25046;DHT22;13044;49.304;12.840;2023-07-24T13:24:32;25.30;89.70
25046;DHT22;13044;49.304;12.840;2023-07-24T13:27:00;25.20;89.60
25046;DHT22;13044;49.304;12.840;2023-07-24T13:29:27;25.10;89.90
25046;DHT22;13044;49.304;12.840;2023-07-24T13:31:56;25.10;90.10
25046;DHT22;13044;49.304;12.840;2023-07-24T13:34:24;25.00;90.40
25046;DHT22;13044;49.304;12.840;2023-07-24T13:36:51;24.90;91.10
25046;DHT22;13044;49.304;12.840;2023-07-24T13:39:18;24.70;92.90
25046;DHT22;13044;49.304;12.840;2023-07-24T13:41:45;24.50;93.30
25046;DHT22;13044;49.304;12.840;2023-07-24T13:44:11;24.40;94.20
25046;DHT22;13044;49.304;12.840;2023-07-24T13:46:39;24.30;95.20
25046;DHT22;13044;49.304;12.840;2023-07-24T13:49:06;24.00;96.50
25046;DHT22;13044;49.304;12.840;2023-07-24T13:51:34;23.90;96.90
25046;DHT22;13044;49.304;12.840;2023-07-24T13:54:01;23.70;97.70
25046;DHT22;13044;49.304;12.840;2023-07-24T13:56:29;23.60;98.70
25046;DHT22;13044;49.304;12.840;2023-07-24T13:59:00;23.50;99.80
25046;DHT22;13044;49.304;12.840;2023-07-24T14:01:27;23.50;99.90
25046;DHT22;13044;49.304;12.840;2023-07-24T14:03:55;23.40;99.90
25046;DHT22;13044;49.304;12.840;2023-07-24T14:06:22;23.40;99.90
25046;DHT22;13044;49.304;12.840;2023-07-24T14:08:49;23.40;99.90
25046;DHT22;13044;49.304;12.840;2023-07-24T14:11:16;23.30;99.90
25046;DHT22;13044;49.304;12.840;2023-07-24T14:13:43;23.30;99.90
25046;DHT22;13044;49.304;12.840;2023-07-24T14:16:11;23.30;99.90
25046;DHT22;13044;49.304;12.840;2023-07-24T14:18:38;23.20;99.90
25046;DHT22;13044;49.304;12.840;2023-07-24T14:21:05;23.20;99.90
25046;DHT22;13044;49.304;12.840;2023-07-24T14:23:32;23.20;99.90
25046;DHT22;13044;49.304;12.840;2023-07-24T14:25:59;23.30;99.90
25046;DHT22;13044;49.304;12.840;2023-07-24T14:28:26;23.30;99.90
25046;DHT22;13044;49.304;12.840;2023-07-24T14:30:53;23.40;99.90
25046;DHT22;13044;49.304;12.840;2023-07-24T14:33:20;23.50;99.90
25046;DHT22;13044;49.304;12.840;2023-07-24T14:35:49;23.50;99.90
25046;DHT22;13044;49.304;12.840;2023-07-24T14:38:16;23.60;99.90
25046;DHT22;13044;49.304;12.840;2023-07-24T14:40:43;23.60;99.90
25046;DHT22;13044;49.304;12.840;2023-07-24T14:43:11;23.60;99.90
25046;DHT22;13044;49.304;12.840;2023-07-24T14:45:38;23.60;99.90
25046;DHT22;13044;49.304;12.840;2023-07-24T14:48:05;23.60;99.90
25046;DHT22;13044;49.304;12.840;2023-07-24T14:50:35;23.60;99.90
25046;DHT22;13044;49.304;12.840;2023-07-24T14:53:02;23.70;99.90
25046;DHT22;13044;49.304;12.840;2023-07-24T14:55:29;23.70;99.90
25046;DHT22;13044;49.304;12.840;2023-07-24T14:57:56;23.80;99.90
25046;DHT22;13044;49.304;12.840;2023-07-24T15:00:23;23.80;99.90
25046;DHT22;13044;49.304;12.840;2023-07-24T15:02:50;23.90;99.90
25046;DHT22;13044;49.304;12.840;2023-07-24T15:05:17;24.00;99.90
25046;DHT22;13044;49.304;12.840;2023-07-24T15:07:44;24.00;99.90
25046;DHT22;13044;49.304;12.840;2023-07-24T15:10:11;24.10;99.90
25046;DHT22;13044;49.304;12.840;2023-07-24T15:12:38;24.20;99.90
25046;DHT22;13044;49.304;12.840;2023-07-24T15:15:05;24.20;99.90
25046;DHT22;13044;49.304;12.840;2023-07-24T15:17:33;24.30;99.90
25046;DHT22;13044;49.304;12.840;2023-07-24T15:20:00;24.30;99.90
25046;DHT22;13044;49.304;12.840;2023-07-24T15:22:27;24.30;99.90
25046;DHT22;13044;49.304;12.840;2023-07-24T15:24:53;24.30;99.90
25046;DHT22;13044;49.304;12.840;2023-07-24T15:27:20;24.30;99.90
25046;DHT22;13044;49.304;12.840;2023-07-24T15:29:47;24.30;99.90
25046;DHT22;13044;49.304;12.840;2023-07-24T15:32:14;24.30;99.90
25046;DHT22;13044;49.304;12.840;2023-07-24T15:34:41;24.30;99.90